createdAt,value
2022-08-28T00:00:26.048Z,6.65
2022-08-28T00:02:55.066Z,8.23
2022-08-28T00:05:24.115Z,6.90
2022-08-28T00:07:51.153Z,7.70
2022-08-28T00:10:20.340Z,7.93
2022-08-28T00:12:50.381Z,7.18
2022-08-28T00:15:26.664Z,7.47
2022-08-28T00:17:53.589Z,9.02
2022-08-28T00:20:21.695Z,8.70
2022-08-28T00:22:48.798Z,7.68
2022-08-28T00:25:19.885Z,7.15
2022-08-28T00:27:52.543Z,6.68
2022-08-28T00:30:27.945Z,7.53
2022-08-28T00:32:57.526Z,7.30
2022-08-28T00:35:25.208Z,6.85
2022-08-28T00:37:54.642Z,6.95
2022-08-28T00:40:30.490Z,7.35
2022-08-28T00:43:04.098Z,7.55
2022-08-28T00:45:37.263Z,8.25
2022-08-28T00:48:06.435Z,7.57
2022-08-28T00:50:56.736Z,7.30
2022-08-28T00:53:30.187Z,8.13
2022-08-28T00:56:05.149Z,6.82
2022-08-28T00:58:37.463Z,7.50
2022-08-28T01:01:04.456Z,7.38
2022-08-28T01:03:31.626Z,7.90
2022-08-28T01:05:58.820Z,8.00
2022-08-28T01:08:25.755Z,10.55
2022-08-28T01:11:00.040Z,8.65
2022-08-28T01:13:27.808Z,7.43
2022-08-28T01:15:55.785Z,7.90
2022-08-28T01:18:23.231Z,9.38
2022-08-28T01:21:23.896Z,8.55
2022-08-28T01:24:00.003Z,6.97
2022-08-28T01:26:28.747Z,8.52
2022-08-28T01:28:58.326Z,8.73
2022-08-28T01:31:26.135Z,8.40
2022-08-28T01:33:53.294Z,7.78
2022-08-28T01:36:20.884Z,7.70
2022-08-28T01:38:55.988Z,8.32
2022-08-28T01:41:22.866Z,7.88
2022-08-28T01:43:49.770Z,8.68
2022-08-28T01:46:17.114Z,7.43
2022-08-28T01:48:44.450Z,7.78
2022-08-28T01:51:12.306Z,8.25
2022-08-28T01:53:39.595Z,8.50
2022-08-28T01:56:10.856Z,7.30
2022-08-28T01:58:38.660Z,8.05
2022-08-28T02:01:14.011Z,7.93
2022-08-28T02:03:43.205Z,8.85
2022-08-28T02:06:10.393Z,8.52
2022-08-28T02:08:37.597Z,9.02
2022-08-28T02:11:06.430Z,8.80
2022-08-28T02:13:35.069Z,8.68
2022-08-28T02:16:02.374Z,9.15
2022-08-28T02:18:29.570Z,10.05
2022-08-28T02:20:56.488Z,8.65
2022-08-28T02:23:23.475Z,9.32
2022-08-28T02:25:50.915Z,8.50
2022-08-28T02:28:17.925Z,7.75
2022-08-28T02:30:44.903Z,9.73
2022-08-28T02:33:11.812Z,8.55
2022-08-28T02:35:40.423Z,9.45
2022-08-28T02:38:07.625Z,8.50
2022-08-28T02:40:34.676Z,9.32
2022-08-28T02:43:01.674Z,8.23
2022-08-28T02:45:28.531Z,8.88
2022-08-28T02:47:56.857Z,9.32
2022-08-28T02:50:24.401Z,8.30
2022-08-28T02:52:52.079Z,8.15
2022-08-28T02:55:19.816Z,8.73
2022-08-28T02:57:47.877Z,8.68
2022-08-28T03:00:19.930Z,11.50
2022-08-28T03:02:47.878Z,9.95
2022-08-28T03:05:17.731Z,9.55
2022-08-28T03:07:44.764Z,9.32
2022-08-28T03:10:12.469Z,8.90
2022-08-28T03:12:39.424Z,8.73
2022-08-28T03:15:07.921Z,8.98
2022-08-28T03:17:36.881Z,9.60
2022-08-28T03:20:08.405Z,9.32
2022-08-28T03:22:54.162Z,9.32
2022-08-28T03:25:22.437Z,9.60
2022-08-28T03:27:50.479Z,9.32
2022-08-28T03:30:19.084Z,9.23
2022-08-28T03:32:46.042Z,8.93
2022-08-28T03:35:13.309Z,10.50
2022-08-28T03:37:40.725Z,9.45
2022-08-28T03:40:09.211Z,8.63
2022-08-28T03:42:36.280Z,9.48
2022-08-28T03:45:05.358Z,9.32
2022-08-28T03:47:32.248Z,8.73
2022-08-28T03:49:59.218Z,8.93
2022-08-28T03:52:26.206Z,9.95
2022-08-28T03:54:53.371Z,10.43
2022-08-28T03:57:22.198Z,8.88
2022-08-28T03:59:51.045Z,9.73
2022-08-28T04:02:20.478Z,10.32
2022-08-28T04:04:49.681Z,9.47
2022-08-28T04:07:17.752Z,10.48
2022-08-28T04:09:44.871Z,10.00
2022-08-28T04:12:11.765Z,10.40
2022-08-28T04:14:39.125Z,10.27
2022-08-28T04:17:06.788Z,13.10
2022-08-28T04:19:34.035Z,11.65
2022-08-28T04:22:01.323Z,8.98
2022-08-28T04:24:28.182Z,10.18
2022-08-28T04:26:55.144Z,10.70
2022-08-28T04:29:23.135Z,11.20
2022-08-28T04:31:50.466Z,10.60
2022-08-28T04:34:17.998Z,10.18
2022-08-28T04:36:46.258Z,11.98
2022-08-28T04:39:13.401Z,10.82
2022-08-28T04:41:40.295Z,10.60
2022-08-28T04:44:08.033Z,8.85
2022-08-28T04:46:35.015Z,9.60
2022-08-28T04:49:02.037Z,9.07
2022-08-28T04:51:29.226Z,8.38
2022-08-28T04:53:57.484Z,10.00
2022-08-28T04:56:25.103Z,8.80
2022-08-28T04:58:52.016Z,8.18
2022-08-28T05:01:24.576Z,9.40
2022-08-28T05:03:56.063Z,8.48
2022-08-28T05:06:26.723Z,8.05
2022-08-28T05:08:57.478Z,7.72
2022-08-28T05:11:33.314Z,9.65
2022-08-28T05:14:04.443Z,9.30
2022-08-28T05:16:32.121Z,8.43
2022-08-28T05:19:03.096Z,8.77
2022-08-28T05:21:30.133Z,9.20
2022-08-28T05:23:57.800Z,8.88
2022-08-28T05:26:26.873Z,9.75
2022-08-28T05:28:56.423Z,8.02
2022-08-28T05:31:24.781Z,8.35
2022-08-28T05:33:52.849Z,9.07
2022-08-28T05:36:22.860Z,9.57
2022-08-28T05:38:53.363Z,8.77
2022-08-28T05:41:27.401Z,7.70
2022-08-28T05:43:54.444Z,8.85
2022-08-28T05:46:23.189Z,9.55
2022-08-28T05:48:50.201Z,8.10
2022-08-28T05:51:20.263Z,10.38
2022-08-28T05:53:49.976Z,7.35
2022-08-28T05:56:24.261Z,7.82
2022-08-28T05:58:51.289Z,7.30
2022-08-28T06:01:21.823Z,7.57
2022-08-28T06:03:57.942Z,7.28
2022-08-28T06:06:27.975Z,8.88
2022-08-28T06:08:59.497Z,7.03
2022-08-28T06:11:30.393Z,6.38
2022-08-28T06:14:02.421Z,8.02
2022-08-28T06:16:31.880Z,9.00
2022-08-28T06:19:00.367Z,6.95
2022-08-28T06:21:27.759Z,7.40
2022-08-28T06:23:54.720Z,6.70
2022-08-28T06:26:21.898Z,6.93
2022-08-28T06:28:48.840Z,7.80
2022-08-28T06:31:24.685Z,7.05
2022-08-28T06:33:57.352Z,6.82
2022-08-28T06:36:28.701Z,5.82
2022-08-28T06:39:00.995Z,6.38
2022-08-28T06:41:29.558Z,6.28
2022-08-28T06:43:57.247Z,9.57
2022-08-28T06:46:25.221Z,7.22
2022-08-28T06:48:52.896Z,5.88
2022-08-28T06:51:19.871Z,6.43
2022-08-28T06:53:50.021Z,6.65
2022-08-28T06:56:26.694Z,7.40
2022-08-28T06:58:55.499Z,6.95
2022-08-28T07:01:29.603Z,6.50
2022-08-28T07:04:00.305Z,6.30
2022-08-28T07:06:30.447Z,6.97
2022-08-28T07:08:57.371Z,6.40
2022-08-28T07:11:31.198Z,7.38
2022-08-28T07:13:58.949Z,7.15
2022-08-28T07:16:29.535Z,6.95
2022-08-28T07:18:57.341Z,5.55
2022-08-28T07:21:24.736Z,6.75
2022-08-28T07:23:51.920Z,6.57
2022-08-28T07:26:23.305Z,7.22
2022-08-28T07:28:51.986Z,6.60
2022-08-28T07:31:22.990Z,6.38
2022-08-28T07:33:53.877Z,5.95
2022-08-28T07:36:29.463Z,5.30
2022-08-28T07:38:58.933Z,6.00
2022-08-28T07:41:29.097Z,8.18
2022-08-28T07:44:14.381Z,6.90
2022-08-28T07:46:41.892Z,6.03
2022-08-28T07:49:09.203Z,5.80
2022-08-28T07:51:36.516Z,5.85
2022-08-28T07:54:04.173Z,5.63
2022-08-28T07:56:32.110Z,6.20
2022-08-28T07:59:00.854Z,6.35
2022-08-28T08:01:30.681Z,5.45
2022-08-28T08:06:33.753Z,5.65
2022-08-28T08:09:02.172Z,5.25
2022-08-28T08:11:32.463Z,7.03
2022-08-28T08:14:05.314Z,6.38
2022-08-28T08:16:35.908Z,5.10
2022-08-28T08:21:31.561Z,6.30
2022-08-28T08:23:59.334Z,5.90
2022-08-28T08:26:30.674Z,5.35
2022-08-28T08:28:57.691Z,5.75
2022-08-28T08:31:26.817Z,5.68
2022-08-28T08:33:57.319Z,6.57
2022-08-28T08:36:26.315Z,5.43
2022-08-28T08:39:00.054Z,5.65
2022-08-28T08:41:39.334Z,7.03
2022-08-28T08:44:33.363Z,6.03
2022-08-28T08:47:16.129Z,5.50
2022-08-28T08:50:01.540Z,6.50
2022-08-28T08:52:32.161Z,6.40
2022-08-28T08:55:15.487Z,6.50
2022-08-28T08:57:44.368Z,4.78
2022-08-28T09:00:17.245Z,6.15
2022-08-28T09:02:56.005Z,6.50
2022-08-28T09:05:37.800Z,5.20
2022-08-28T09:08:06.794Z,4.90
2022-08-28T09:10:42.849Z,6.10
2022-08-28T09:13:21.130Z,7.05
2022-08-28T09:15:50.886Z,5.85
2022-08-28T09:18:36.078Z,5.22
2022-08-28T09:21:05.609Z,5.97
2022-08-28T09:23:32.496Z,5.55
2022-08-28T09:26:05.975Z,5.47
2022-08-28T09:28:37.448Z,5.18
2022-08-28T09:31:09.144Z,6.45
2022-08-28T09:33:48.861Z,7.72
2022-08-28T09:36:37.179Z,7.18
2022-08-28T09:39:18.419Z,8.23
2022-08-28T09:42:17.259Z,7.90
2022-08-28T09:45:13.298Z,7.65
2022-08-28T09:47:49.966Z,6.88
2022-08-28T09:50:28.982Z,7.70
2022-08-28T09:53:17.863Z,6.35
2022-08-28T09:55:53.821Z,7.20
2022-08-28T09:58:22.199Z,5.97
2022-08-28T10:01:04.062Z,7.30
2022-08-28T10:03:37.106Z,7.70
2022-08-28T10:06:29.495Z,7.45
2022-08-28T10:09:23.280Z,9.68
2022-08-28T10:12:11.524Z,8.23
2022-08-28T10:14:45.488Z,10.20
2022-08-28T10:17:56.696Z,10.13
2022-08-28T10:20:55.859Z,9.45
2022-08-28T10:23:33.110Z,10.20
2022-08-28T10:26:30.270Z,8.98
2022-08-28T10:29:48.375Z,10.80
2022-08-28T10:32:52.469Z,11.25
2022-08-28T10:35:35.974Z,10.73
2022-08-28T10:38:05.796Z,9.93
2022-08-28T10:40:47.793Z,10.73
2022-08-28T10:43:20.082Z,9.95
2022-08-28T10:45:49.347Z,9.05
2022-08-28T10:48:17.738Z,9.48
2022-08-28T10:50:57.608Z,9.45
2022-08-28T10:53:39.660Z,9.18
2022-08-28T10:56:17.561Z,9.30
2022-08-28T10:58:47.379Z,8.88
2022-08-28T11:01:35.776Z,8.93
2022-08-28T11:04:09.624Z,10.13
2022-08-28T11:06:50.394Z,11.32
2022-08-28T11:09:34.825Z,10.32
2022-08-28T11:12:10.176Z,11.07
2022-08-28T11:14:48.076Z,9.68
2022-08-28T11:17:27.875Z,9.20
2022-08-28T11:20:17.822Z,8.13
2022-08-28T11:22:53.015Z,9.52
2022-08-28T11:25:26.264Z,9.32
2022-08-28T11:28:19.450Z,8.32
2022-08-28T11:30:50.143Z,7.80
2022-08-28T11:33:39.073Z,8.82
2022-08-28T11:36:11.818Z,7.68
2022-08-28T11:38:41.925Z,7.78
2022-08-28T11:43:46.517Z,9.98
2022-08-28T11:46:18.208Z,8.05
2022-08-28T11:48:51.948Z,8.27
2022-08-28T11:51:18.791Z,7.75
2022-08-28T11:53:51.935Z,7.15
2022-08-28T11:56:37.738Z,8.43
2022-08-28T11:59:35.721Z,8.65
2022-08-28T12:02:40.242Z,8.50
2022-08-28T12:05:11.258Z,9.25
2022-08-28T12:07:43.967Z,10.00
2022-08-28T12:10:23.076Z,8.25
2022-08-28T12:12:50.076Z,8.13
2022-08-28T12:15:29.621Z,8.90
2022-08-28T12:18:05.748Z,9.15
2022-08-28T12:20:44.593Z,8.82
2022-08-28T12:23:30.093Z,9.00
2022-08-28T12:26:13.931Z,9.15
2022-08-28T12:28:52.936Z,9.10
2022-08-28T12:31:59.805Z,7.60
2022-08-28T12:34:50.815Z,7.45
2022-08-28T12:37:51.079Z,8.00
2022-08-28T12:40:29.718Z,8.63
2022-08-28T12:43:09.510Z,8.02
2022-08-28T12:45:45.095Z,7.55
2022-08-28T12:48:14.887Z,8.15
2022-08-28T12:50:41.934Z,7.90
2022-08-28T12:53:16.288Z,8.55
2022-08-28T12:55:45.842Z,6.85
2022-08-28T12:58:37.235Z,7.90
2022-08-28T13:01:15.624Z,8.23
2022-08-28T13:03:52.369Z,7.03
2022-08-28T13:06:26.545Z,8.40
2022-08-28T13:09:03.988Z,9.23
2022-08-28T13:11:36.628Z,10.10
2022-08-28T13:14:05.264Z,8.65
2022-08-28T13:16:46.646Z,9.30
2022-08-28T13:19:34.908Z,9.75
2022-08-28T13:22:29.382Z,9.48
2022-08-28T13:25:00.141Z,10.65
2022-08-28T13:27:28.239Z,10.73
2022-08-28T13:30:27.427Z,10.32
2022-08-28T13:33:04.814Z,10.27
2022-08-28T13:35:35.490Z,11.02
2022-08-28T13:38:06.158Z,9.23
2022-08-28T13:43:41.925Z,8.27
2022-08-28T13:46:08.849Z,8.40
2022-08-28T13:48:35.744Z,7.30
2022-08-28T13:51:10.858Z,10.88
2022-08-28T13:53:39.277Z,8.30
2022-08-28T13:56:06.477Z,9.38
2022-08-28T13:58:33.522Z,8.82
2022-08-28T14:01:01.184Z,9.55
2022-08-28T14:03:38.465Z,9.50
2022-08-28T14:06:07.432Z,8.43
2022-08-28T14:08:34.820Z,7.20
2022-08-28T14:11:01.797Z,7.00
2022-08-28T14:13:28.885Z,7.78
2022-08-28T14:15:57.123Z,7.40
2022-08-28T14:18:28.053Z,7.22
2022-08-28T14:20:54.982Z,7.20
2022-08-28T14:23:23.042Z,8.52
2022-08-28T14:25:50.535Z,7.65
2022-08-28T14:28:17.957Z,7.25
2022-08-28T14:30:50.199Z,7.78
2022-08-28T14:33:20.499Z,10.75
2022-08-28T14:35:49.116Z,13.88
2022-08-28T14:38:16.779Z,8.73
2022-08-28T14:40:44.801Z,7.13
2022-08-28T14:43:13.652Z,6.72
2022-08-28T14:45:48.536Z,6.22
2022-08-28T14:48:17.352Z,6.47
2022-08-28T14:50:47.090Z,7.32
2022-08-28T14:53:14.959Z,7.22
2022-08-28T14:55:43.964Z,7.82
2022-08-28T14:58:11.098Z,7.65
2022-08-28T15:00:40.125Z,7.68
2022-08-28T15:03:07.081Z,6.65
2022-08-28T15:05:34.223Z,6.35
2022-08-28T15:08:01.535Z,7.68
2022-08-28T15:10:28.883Z,6.60
2022-08-28T15:12:55.807Z,6.13
2022-08-28T15:15:22.917Z,6.63
2022-08-28T15:17:49.831Z,6.90
2022-08-28T15:20:16.870Z,8.05
2022-08-28T15:22:43.746Z,6.50
2022-08-28T15:25:10.728Z,5.22
2022-08-28T15:27:37.836Z,6.78
2022-08-28T15:30:05.703Z,7.18
2022-08-28T15:32:32.590Z,7.70
2022-08-28T15:34:59.515Z,6.15
2022-08-28T15:37:26.432Z,6.82
2022-08-28T15:40:12.030Z,7.15
2022-08-28T15:42:38.913Z,7.38
2022-08-28T15:45:06.194Z,7.60
2022-08-28T15:47:33.106Z,7.43
2022-08-28T15:50:00.736Z,8.70
2022-08-28T15:52:27.752Z,7.82
2022-08-28T15:54:55.023Z,6.97
2022-08-28T15:57:22.166Z,7.07
2022-08-28T15:59:50.749Z,7.53
2022-08-28T16:02:20.550Z,7.82
2022-08-28T16:04:47.950Z,7.45
2022-08-28T16:07:14.877Z,6.85
2022-08-28T16:09:41.790Z,6.15
2022-08-28T16:12:08.788Z,8.30
2022-08-28T16:14:36.207Z,5.75
2022-08-28T16:17:06.046Z,5.13
2022-08-28T16:19:39.787Z,5.80
2022-08-28T16:22:07.747Z,6.47
2022-08-28T16:24:35.100Z,5.03
2022-08-28T16:27:02.308Z,4.70
2022-08-28T16:29:29.190Z,5.85
2022-08-28T16:31:56.866Z,4.88
2022-08-28T16:34:26.135Z,5.60
2022-08-28T16:36:56.369Z,4.80
2022-08-28T16:39:23.302Z,4.95
2022-08-28T16:41:50.282Z,4.97
2022-08-28T16:44:27.906Z,4.72
2022-08-28T16:46:55.659Z,4.05
2022-08-28T16:49:23.662Z,4.25
2022-08-28T16:51:50.940Z,3.85
2022-08-28T16:54:18.414Z,3.95
2022-08-28T16:56:46.263Z,4.60
2022-08-28T16:59:16.553Z,3.83
2022-08-28T17:04:10.587Z,3.53
2022-08-28T17:06:37.523Z,4.07
2022-08-28T17:09:04.445Z,3.90
2022-08-28T17:11:32.046Z,3.88
2022-08-28T17:14:00.278Z,6.18
2022-08-28T17:16:31.369Z,4.57
2022-08-28T17:18:59.844Z,4.93
2022-08-28T17:21:45.541Z,4.18
2022-08-28T17:24:13.342Z,3.33
2022-08-28T17:26:41.745Z,3.00
2022-08-28T17:29:08.773Z,4.00
2022-08-28T17:31:35.890Z,3.78
2022-08-28T17:34:02.957Z,4.10
2022-08-28T17:36:33.804Z,4.53
2022-08-28T17:39:03.181Z,4.80
2022-08-28T17:41:30.189Z,4.13
2022-08-28T17:43:57.069Z,4.55
2022-08-28T17:46:23.976Z,3.35
2022-08-28T17:48:55.761Z,4.82
2022-08-28T17:51:42.263Z,4.32
2022-08-28T17:54:16.798Z,4.53
2022-08-28T17:56:44.057Z,4.30
2022-08-28T17:59:12.306Z,3.80
2022-08-28T18:01:40.994Z,3.17
2022-08-28T18:04:08.944Z,3.70
2022-08-28T18:06:36.060Z,3.28
2022-08-28T18:09:04.119Z,4.53
2022-08-28T18:11:31.057Z,3.30
2022-08-28T18:13:59.726Z,3.83
2022-08-28T18:16:31.115Z,3.53
2022-08-28T18:18:59.581Z,3.45
2022-08-28T18:21:26.562Z,4.07
2022-08-28T18:23:53.561Z,5.22
2022-08-28T18:26:20.572Z,3.97
2022-08-28T18:28:47.554Z,4.13
2022-08-28T18:31:14.615Z,4.07
2022-08-28T18:33:41.615Z,3.90
2022-08-28T18:36:15.061Z,2.72
2022-08-28T18:38:42.868Z,4.05
2022-08-28T18:41:12.109Z,2.65
2022-08-28T18:43:39.488Z,3.67
2022-08-28T18:46:08.919Z,3.88
2022-08-28T18:48:36.820Z,5.17
2022-08-28T18:51:06.455Z,3.40
2022-08-28T18:53:34.299Z,3.60
2022-08-28T18:56:02.685Z,4.13
2022-08-28T18:58:32.170Z,3.20
2022-08-28T19:01:01.361Z,4.10
2022-08-28T19:03:28.874Z,3.20
2022-08-28T19:05:56.705Z,3.08
2022-08-28T19:08:25.310Z,4.57
2022-08-28T19:10:52.732Z,3.45
2022-08-28T19:13:19.675Z,2.90
2022-08-28T19:15:53.208Z,4.25
2022-08-28T19:18:20.278Z,4.82
2022-08-28T19:20:48.057Z,3.28
2022-08-28T19:23:17.787Z,2.85
2022-08-28T19:25:45.823Z,3.65
2022-08-28T19:28:12.884Z,3.28
2022-08-28T19:30:40.041Z,2.25
2022-08-28T19:33:07.216Z,2.17
2022-08-28T19:35:34.095Z,3.03
2022-08-28T19:38:01.315Z,2.17
2022-08-28T19:40:29.028Z,1.80
2022-08-28T19:42:56.134Z,1.73
2022-08-28T19:45:23.527Z,2.83
2022-08-28T19:47:50.647Z,1.88
2022-08-28T19:50:18.256Z,2.50
2022-08-28T19:52:46.435Z,2.50
2022-08-28T19:55:18.220Z,2.25
2022-08-28T19:57:46.750Z,2.45
2022-08-28T20:00:15.349Z,2.40
2022-08-28T20:02:42.380Z,1.50
2022-08-28T20:05:10.563Z,2.08
2022-08-28T20:07:37.805Z,1.55
2022-08-28T20:10:05.275Z,1.77
2022-08-28T20:12:32.132Z,1.83
2022-08-28T20:15:03.261Z,1.92
2022-08-28T20:17:30.748Z,2.20
2022-08-28T20:20:02.440Z,1.63
2022-08-28T20:22:31.902Z,1.60
2022-08-28T20:24:59.952Z,1.40
2022-08-28T20:27:26.979Z,1.90
2022-08-28T20:29:54.046Z,2.03
2022-08-28T20:32:20.936Z,2.13
2022-08-28T20:34:47.823Z,1.55
2022-08-28T20:37:16.643Z,1.27
2022-08-28T20:39:43.567Z,2.17
2022-08-28T20:42:11.794Z,2.53
2022-08-28T20:44:38.658Z,1.40
2022-08-28T20:47:05.717Z,1.77
2022-08-28T20:49:32.629Z,1.05
2022-08-28T20:52:06.847Z,2.00
2022-08-28T20:54:38.754Z,1.85
2022-08-28T20:57:11.863Z,2.08
2022-08-28T20:59:40.784Z,2.13
2022-08-28T21:02:17.791Z,1.67
2022-08-28T21:04:46.153Z,1.42
2022-08-28T21:07:15.289Z,1.58
2022-08-28T21:10:05.679Z,1.08
2022-08-28T21:12:29.023Z,1.67
2022-08-28T21:14:55.923Z,1.50
2022-08-28T21:17:29.702Z,1.40
2022-08-28T21:20:09.257Z,1.90
2022-08-28T21:22:37.676Z,2.88
2022-08-28T21:25:07.114Z,2.22
2022-08-28T21:27:34.159Z,1.40
2022-08-28T21:30:01.356Z,2.85
2022-08-28T21:32:29.872Z,1.10
2022-08-28T21:34:56.825Z,1.45
2022-08-28T21:37:23.976Z,2.40
2022-08-28T21:39:50.889Z,1.67
2022-08-28T21:42:18.048Z,1.10
2022-08-28T21:44:51.647Z,1.73
2022-08-28T21:47:21.534Z,1.30
2022-08-28T21:49:50.161Z,2.00
2022-08-28T21:52:18.642Z,1.75
2022-08-28T21:54:45.967Z,1.75
2022-08-28T21:57:12.808Z,1.65
2022-08-28T21:59:39.824Z,1.23
2022-08-28T22:02:06.995Z,2.10
2022-08-28T22:04:34.767Z,2.25
2022-08-28T22:07:01.917Z,1.50
2022-08-28T22:09:29.123Z,1.45
2022-08-28T22:11:56.037Z,1.70
2022-08-28T22:14:25.116Z,1.95
2022-08-28T22:16:52.249Z,1.50
2022-08-28T22:19:19.628Z,1.75
2022-08-28T22:22:05.314Z,1.88
2022-08-28T22:24:32.210Z,1.15
2022-08-28T22:26:59.052Z,1.50
2022-08-28T22:29:26.257Z,1.40
2022-08-28T22:31:53.349Z,2.15
2022-08-28T22:34:20.442Z,1.92
2022-08-28T22:36:47.477Z,1.88
2022-08-28T22:39:14.494Z,2.22
2022-08-28T22:41:42.069Z,1.33
2022-08-28T22:44:09.983Z,2.60
2022-08-28T22:46:37.090Z,1.58
2022-08-28T22:49:04.430Z,1.30
2022-08-28T22:51:34.351Z,1.50
2022-08-28T22:54:01.433Z,2.03
2022-08-28T22:56:28.444Z,1.60
2022-08-28T22:58:55.373Z,1.17
2022-08-28T23:01:24.828Z,1.80
2022-08-28T23:03:52.408Z,1.97
2022-08-28T23:06:21.453Z,1.95
2022-08-28T23:08:48.732Z,1.30
2022-08-28T23:11:15.972Z,1.50
2022-08-28T23:13:42.888Z,1.55
2022-08-28T23:16:09.932Z,1.30
2022-08-28T23:19:06.748Z,2.45
2022-08-28T23:21:26.439Z,2.33
2022-08-28T23:23:55.048Z,1.63
2022-08-28T23:26:22.398Z,1.42
2022-08-28T23:28:49.304Z,1.60
2022-08-28T23:31:16.595Z,1.63
2022-08-28T23:33:43.773Z,1.98
2022-08-28T23:36:11.377Z,1.58
2022-08-28T23:38:42.916Z,1.38
2022-08-28T23:41:11.113Z,1.40
2022-08-28T23:43:38.649Z,1.73
2022-08-28T23:46:06.588Z,2.42
2022-08-28T23:48:35.272Z,1.52
2022-08-28T23:51:02.331Z,1.42
2022-08-28T23:53:29.689Z,1.67
2022-08-28T23:55:59.557Z,2.78
2022-08-28T23:58:31.637Z,2.42
